Time;durP1;ratioP1;P1;durP2;ratioP2;P2;SDS_P1;SDS_P2;PMS_P1;PMS_P2;Temp;Humidity;BMP_temperature;BMP_pressure;BME280_temperature;BME280_humidity;BME280_pressure;Samples;Min_cycle;Max_cycle;Signal;HPM_P1;HPM_P2
2022/06/28 00:00:10;;;;;;;;;;;18.60;99.90;;;;;;5032366;28;20195;-64
2022/06/28 00:02:38;;;;;;;;;;;19.20;99.90;;;;;;5032439;28;20265;-64
2022/06/28 00:05:09;;;;;;;;;;;18.90;99.90;;;;;;5033275;28;20199;-64
2022/06/28 00:07:36;;;;;;;;;;;18.80;99.90;;;;;;5032860;28;20211;-64
2022/06/28 00:10:05;;;;;;;;;;;19.00;99.90;;;;;;5032753;28;20202;-63
2022/06/28 00:12:33;;;;;;;;;;;19.30;99.90;;;;;;5032434;28;20226;-63
2022/06/28 00:17:46;;;;;;;;;;;19.20;99.90;;;;;;5028506;28;20213;-63
2022/06/28 00:20:15;;;;;;;;;;;19.40;99.90;;;;;;5032688;28;20198;-63
2022/06/28 00:22:43;;;;;;;;;;;19.30;99.90;;;;;;5031585;28;20195;-63
2022/06/28 00:25:11;;;;;;;;;;;19.10;99.90;;;;;;5030287;28;20197;-63
2022/06/28 00:27:39;;;;;;;;;;;19.00;99.90;;;;;;5028662;28;20241;-62
2022/06/28 00:30:07;;;;;;;;;;;18.90;99.90;;;;;;5031280;28;20253;-62
2022/06/28 00:32:35;;;;;;;;;;;18.80;99.90;;;;;;5028466;28;20194;-62
2022/06/28 00:35:04;;;;;;;;;;;18.80;99.90;;;;;;5022962;28;20295;-62
2022/06/28 00:37:33;;;;;;;;;;;18.90;99.90;;;;;;5030093;28;20269;-63
2022/06/28 00:40:00;;;;;;;;;;;18.90;99.90;;;;;;5028509;28;20199;-63
2022/06/28 00:42:28;;;;;;;;;;;18.90;99.90;;;;;;5026862;28;20202;-62
2022/06/28 00:44:57;;;;;;;;;;;19.00;99.90;;;;;;5030199;28;20248;-64
2022/06/28 00:47:26;;;;;;;;;;;19.20;99.90;;;;;;5031742;28;20244;-63
2022/06/28 00:49:56;;;;;;;;;;;19.00;99.90;;;;;;5030569;28;20278;-63
2022/06/28 00:52:24;;;;;;;;;;;18.90;99.90;;;;;;5030772;28;20226;-63
2022/06/28 00:54:54;;;;;;;;;;;18.90;99.90;;;;;;5026939;28;20338;-62
2022/06/28 00:57:22;;;;;;;;;;;18.80;99.90;;;;;;5027570;28;20248;-64
2022/06/28 00:59:50;;;;;;;;;;;19.00;99.90;;;;;;5030659;28;20286;-64
2022/06/28 01:02:18;;;;;;;;;;;18.90;99.90;;;;;;5027863;28;20222;-64
2022/06/28 01:04:45;;;;;;;;;;;18.90;99.90;;;;;;5030485;28;20213;-65
2022/06/28 01:07:13;;;;;;;;;;;18.90;99.90;;;;;;5026798;28;20726;-64
2022/06/28 01:09:41;;;;;;;;;;;19.00;99.90;;;;;;5028823;28;20289;-64
2022/06/28 01:12:10;;;;;;;;;;;18.90;99.90;;;;;;5022651;28;20203;-64
2022/06/28 01:14:38;;;;;;;;;;;18.70;99.90;;;;;;5031428;28;20217;-63
2022/06/28 01:17:06;;;;;;;;;;;18.50;99.90;;;;;;5029116;28;20245;-63
2022/06/28 01:19:34;;;;;;;;;;;18.30;99.90;;;;;;5032885;28;20219;-63
2022/06/28 01:22:03;;;;;;;;;;;18.40;99.90;;;;;;5027865;28;20552;-64
2022/06/28 01:24:32;;;;;;;;;;;18.30;99.90;;;;;;5034325;28;20281;-64
2022/06/28 01:27:00;;;;;;;;;;;18.20;99.90;;;;;;5027578;28;20187;-63
2022/06/28 01:29:28;;;;;;;;;;;18.20;99.90;;;;;;5025508;28;20370;-63
2022/06/28 01:31:56;;;;;;;;;;;18.20;99.90;;;;;;5027804;28;20736;-62
2022/06/28 01:34:24;;;;;;;;;;;18.10;99.90;;;;;;5028745;28;20237;-63
2022/06/28 01:36:51;;;;;;;;;;;17.90;99.90;;;;;;5027044;28;20225;-63
2022/06/28 01:39:19;;;;;;;;;;;18.00;99.90;;;;;;5026287;28;20680;-63
2022/06/28 01:41:50;;;;;;;;;;;18.10;99.90;;;;;;5024773;28;20267;-63
2022/06/28 01:44:17;;;;;;;;;;;18.20;99.90;;;;;;5024962;28;20237;-62
2022/06/28 01:46:45;;;;;;;;;;;18.20;99.90;;;;;;5025633;28;20249;-62
2022/06/28 01:49:14;;;;;;;;;;;18.20;99.90;;;;;;5028871;28;20643;-63
2022/06/28 01:51:41;;;;;;;;;;;18.10;99.90;;;;;;5025781;28;20199;-64
2022/06/28 01:54:09;;;;;;;;;;;17.80;99.90;;;;;;5024546;28;20315;-62
2022/06/28 01:56:37;;;;;;;;;;;17.70;99.90;;;;;;5024882;28;20592;-63
2022/06/28 01:59:06;;;;;;;;;;;17.70;99.90;;;;;;5026968;28;20250;-63
2022/06/28 02:01:34;;;;;;;;;;;17.90;99.90;;;;;;5026803;28;20198;-63
2022/06/28 02:04:01;;;;;;;;;;;17.90;99.90;;;;;;5026313;28;20187;-63
2022/06/28 02:06:29;;;;;;;;;;;18.00;99.90;;;;;;5024927;28;20693;-64
2022/06/28 02:08:57;;;;;;;;;;;18.10;99.90;;;;;;5025283;28;20199;-63
2022/06/28 02:11:24;;;;;;;;;;;17.90;99.90;;;;;;5025254;28;20622;-63
2022/06/28 02:13:52;;;;;;;;;;;18.00;99.90;;;;;;5025774;28;20245;-64
2022/06/28 02:16:21;;;;;;;;;;;17.70;99.90;;;;;;5025203;28;20241;-61
2022/06/28 02:18:49;;;;;;;;;;;17.50;99.90;;;;;;5027709;28;20209;-63
2022/06/28 02:21:17;;;;;;;;;;;17.40;99.90;;;;;;5026721;28;20675;-64
2022/06/28 02:23:44;;;;;;;;;;;17.40;99.90;;;;;;5024561;28;20839;-62
2022/06/28 02:26:13;;;;;;;;;;;17.50;99.90;;;;;;5025477;28;20276;-62
2022/06/28 02:28:41;;;;;;;;;;;17.60;99.90;;;;;;5026864;28;20616;-63
2022/06/28 02:31:09;;;;;;;;;;;17.70;99.90;;;;;;5028856;28;20203;-63
2022/06/28 02:33:39;;;;;;;;;;;17.70;99.90;;;;;;5025814;28;20226;-62
2022/06/28 02:41:47;;;;;;;;;;;18.00;99.90;;;;;;5002089;28;20202;-63
2022/06/28 02:44:15;;;;;;;;;;;18.10;99.90;;;;;;5025897;28;20651;-62
2022/06/28 02:46:43;;;;;;;;;;;18.00;99.90;;;;;;5024979;28;20264;-63
2022/06/28 02:49:13;;;;;;;;;;;18.20;99.90;;;;;;5024494;28;20214;-63
2022/06/28 02:51:40;;;;;;;;;;;18.10;99.90;;;;;;5027188;28;20298;-63
2022/06/28 02:54:08;;;;;;;;;;;18.00;99.90;;;;;;5027014;28;20195;-63
2022/06/28 02:56:37;;;;;;;;;;;18.10;99.90;;;;;;5026054;28;20286;-63
2022/06/28 02:59:05;;;;;;;;;;;18.20;99.90;;;;;;5027014;28;20241;-64
2022/06/28 03:01:33;;;;;;;;;;;18.20;99.90;;;;;;5028158;28;20227;-64
2022/06/28 03:04:01;;;;;;;;;;;18.30;99.90;;;;;;5030193;28;20205;-63
2022/06/28 03:06:30;;;;;;;;;;;18.40;99.90;;;;;;5029309;28;20183;-63
2022/06/28 03:08:57;;;;;;;;;;;18.50;99.90;;;;;;5031822;28;20202;-64
2022/06/28 03:11:25;;;;;;;;;;;18.50;99.90;;;;;;5031421;28;20687;-63
2022/06/28 03:13:53;;;;;;;;;;;18.50;99.90;;;;;;5029053;28;20195;-63
2022/06/28 03:16:21;;;;;;;;;;;18.50;99.90;;;;;;5024965;28;20277;-63
2022/06/28 03:18:48;;;;;;;;;;;18.70;99.90;;;;;;5030501;28;20209;-63
2022/06/28 03:21:16;;;;;;;;;;;18.50;99.90;;;;;;5031374;28;20644;-63
2022/06/28 03:23:45;;;;;;;;;;;18.40;99.90;;;;;;5029690;28;20214;-63
2022/06/28 03:26:13;;;;;;;;;;;18.30;99.90;;;;;;5028094;28;20695;-63
2022/06/28 03:28:41;;;;;;;;;;;18.20;99.90;;;;;;5029303;28;20278;-63
2022/06/28 03:31:08;;;;;;;;;;;18.40;99.90;;;;;;5030728;28;20203;-64
2022/06/28 03:33:36;;;;;;;;;;;18.40;99.90;;;;;;5028303;28;20281;-64
2022/06/28 03:36:04;;;;;;;;;;;18.40;99.90;;;;;;5029642;28;20664;-64
2022/06/28 03:38:32;;;;;;;;;;;18.30;99.90;;;;;;5028949;28;20210;-64
2022/06/28 03:41:01;;;;;;;;;;;18.20;99.90;;;;;;5029719;28;20190;-64
2022/06/28 03:43:29;;;;;;;;;;;18.20;99.90;;;;;;5026136;28;20191;-64
2022/06/28 03:45:57;;;;;;;;;;;18.30;99.90;;;;;;5052732;23;20223;-63
2022/06/28 03:48:24;;;;;;;;;;;18.40;99.90;;;;;;5016273;28;20195;-65
2022/06/28 03:50:52;;;;;;;;;;;18.40;99.90;;;;;;5010958;28;20286;-64
2022/06/28 03:53:20;;;;;;;;;;;18.20;99.90;;;;;;5016341;28;20195;-64
2022/06/28 03:55:48;;;;;;;;;;;18.20;99.90;;;;;;5010015;28;20226;-65
2022/06/28 03:58:17;;;;;;;;;;;18.20;99.90;;;;;;5008503;28;20327;-64
2022/06/28 04:00:45;;;;;;;;;;;18.30;99.90;;;;;;5009594;28;20206;-64
2022/06/28 04:03:13;;;;;;;;;;;18.40;99.90;;;;;;5004412;28;20610;-65
2022/06/28 04:05:40;;;;;;;;;;;18.10;99.90;;;;;;5005051;28;20277;-64
2022/06/28 04:08:09;;;;;;;;;;;18.20;99.90;;;;;;5005950;28;20199;-65
2022/06/28 04:10:36;;;;;;;;;;;18.10;99.90;;;;;;5004480;28;20282;-65
2022/06/28 04:13:04;;;;;;;;;;;18.40;99.90;;;;;;5007720;28;20269;-65
2022/06/28 04:15:35;;;;;;;;;;;18.50;99.90;;;;;;5008707;28;20234;-64
2022/06/28 04:18:03;;;;;;;;;;;18.50;99.90;;;;;;5006916;28;20904;-65
2022/06/28 04:20:31;;;;;;;;;;;18.50;99.90;;;;;;5007063;28;20613;-65
2022/06/28 04:22:58;;;;;;;;;;;18.40;99.90;;;;;;5008728;28;20273;-65
2022/06/28 04:25:26;;;;;;;;;;;18.70;99.90;;;;;;5002656;28;20244;-65
2022/06/28 04:27:56;;;;;;;;;;;18.80;99.90;;;;;;4995777;28;20207;-65
2022/06/28 04:30:25;;;;;;;;;;;18.80;99.90;;;;;;4983608;28;20199;-65
2022/06/28 04:32:54;;;;;;;;;;;18.80;99.90;;;;;;4982235;28;20215;-65
2022/06/28 04:35:21;;;;;;;;;;;18.90;99.90;;;;;;4983742;28;20286;-65
2022/06/28 04:37:49;;;;;;;;;;;18.80;99.90;;;;;;4981296;28;21014;-66
2022/06/28 04:40:17;;;;;;;;;;;18.80;99.90;;;;;;4986087;28;20288;-65
2022/06/28 04:42:45;;;;;;;;;;;18.70;99.90;;;;;;4982191;28;20741;-65
2022/06/28 04:45:12;;;;;;;;;;;18.60;99.90;;;;;;4983696;28;20286;-65
2022/06/28 04:47:42;;;;;;;;;;;18.50;99.90;;;;;;4981271;28;20212;-65
2022/06/28 04:50:11;;;;;;;;;;;18.50;99.90;;;;;;4982132;28;20212;-65
2022/06/28 04:52:38;;;;;;;;;;;18.50;99.90;;;;;;4983447;28;20304;-65
2022/06/28 04:55:07;;;;;;;;;;;18.60;99.90;;;;;;4982665;28;20199;-66
2022/06/28 04:57:35;;;;;;;;;;;18.70;99.90;;;;;;4979501;28;20664;-66
2022/06/28 05:00:02;;;;;;;;;;;18.70;99.90;;;;;;4983570;28;20298;-65
2022/06/28 05:02:30;;;;;;;;;;;18.60;99.90;;;;;;4978796;28;20269;-65
2022/06/28 05:04:58;;;;;;;;;;;18.50;99.90;;;;;;4983268;28;20208;-65
2022/06/28 05:07:27;;;;;;;;;;;18.40;99.90;;;;;;4982531;28;20215;-65
2022/06/28 05:09:55;;;;;;;;;;;18.30;99.90;;;;;;4981646;28;20277;-66
2022/06/28 05:12:23;;;;;;;;;;;18.10;99.90;;;;;;4986393;28;20288;-65
2022/06/28 05:14:51;;;;;;;;;;;18.10;99.90;;;;;;4984792;28;21311;-66
2022/06/28 05:17:18;;;;;;;;;;;17.90;99.90;;;;;;4982210;28;20313;-65
2022/06/28 05:19:46;;;;;;;;;;;17.80;99.90;;;;;;4984613;28;20270;-65
2022/06/28 05:22:14;;;;;;;;;;;17.70;99.90;;;;;;4980894;28;21212;-65
2022/06/28 05:24:43;;;;;;;;;;;17.50;99.90;;;;;;4985054;28;20238;-65
2022/06/28 05:27:11;;;;;;;;;;;17.20;99.90;;;;;;4984439;28;20295;-65
2022/06/28 05:29:39;;;;;;;;;;;17.60;99.90;;;;;;4983354;28;20841;-65
2022/06/28 05:32:07;;;;;;;;;;;17.90;99.90;;;;;;4982457;28;20327;-65
2022/06/28 05:34:35;;;;;;;;;;;18.00;99.90;;;;;;4979026;28;20203;-65
2022/06/28 05:37:02;;;;;;;;;;;17.90;99.90;;;;;;4983505;28;20200;-65
2022/06/28 05:39:30;;;;;;;;;;;17.70;99.90;;;;;;4983481;28;20289;-65
2022/06/28 05:41:59;;;;;;;;;;;17.80;99.90;;;;;;4981562;28;20257;-65
2022/06/28 05:44:27;;;;;;;;;;;17.80;99.90;;;;;;4981051;28;20215;-65
2022/06/28 05:46:55;;;;;;;;;;;17.80;99.90;;;;;;4985907;28;20215;-65
2022/06/28 05:49:23;;;;;;;;;;;18.00;99.90;;;;;;4986085;28;21326;-66
2022/06/28 05:51:50;;;;;;;;;;;17.90;99.90;;;;;;4980209;28;20209;-66
2022/06/28 05:54:18;;;;;;;;;;;17.90;99.90;;;;;;4979254;28;20202;-66
2022/06/28 05:56:46;;;;;;;;;;;18.30;99.90;;;;;;4979457;28;20212;-66
2022/06/28 05:59:15;;;;;;;;;;;18.10;99.90;;;;;;4982310;28;20969;-65
2022/06/28 06:01:43;;;;;;;;;;;18.20;99.90;;;;;;4981246;28;21049;-65
2022/06/28 06:04:18;;;;;;;;;;;18.30;99.90;;;;;;4976760;28;21045;-65
2022/06/28 06:06:46;;;;;;;;;;;18.20;99.90;;;;;;4983098;28;20330;-65
2022/06/28 06:09:14;;;;;;;;;;;18.30;99.90;;;;;;4990763;28;20203;-68
2022/06/28 06:11:42;;;;;;;;;;;18.20;99.90;;;;;;5002888;28;20257;-67
2022/06/28 06:14:10;;;;;;;;;;;18.20;99.90;;;;;;5002250;28;20278;-66
2022/06/28 06:16:39;;;;;;;;;;;18.30;99.90;;;;;;5003223;28;20222;-67
2022/06/28 06:19:07;;;;;;;;;;;18.30;99.90;;;;;;5006318;28;20679;-68
2022/06/28 06:21:34;;;;;;;;;;;18.30;99.90;;;;;;5006367;28;20207;-67
2022/06/28 06:24:02;;;;;;;;;;;18.30;99.90;;;;;;5006133;28;20195;-67
2022/06/28 06:26:31;;;;;;;;;;;18.40;99.90;;;;;;4997512;28;20283;-67
2022/06/28 06:28:58;;;;;;;;;;;18.40;99.90;;;;;;5005359;28;20223;-67
2022/06/28 06:31:26;;;;;;;;;;;18.40;99.90;;;;;;5011469;28;20203;-65
2022/06/28 06:33:56;;;;;;;;;;;18.40;99.90;;;;;;5010585;28;20290;-65
2022/06/28 06:36:23;;;;;;;;;;;18.60;99.90;;;;;;5012902;28;20199;-65
2022/06/28 06:38:51;;;;;;;;;;;18.70;99.90;;;;;;5014852;28;20265;-65
2022/06/28 06:41:19;;;;;;;;;;;18.90;99.90;;;;;;5014846;28;20250;-65
2022/06/28 06:43:46;;;;;;;;;;;19.00;99.90;;;;;;5014173;28;20588;-66
2022/06/28 06:46:14;;;;;;;;;;;19.00;99.90;;;;;;5014397;28;20650;-65
2022/06/28 06:48:50;;;;;;;;;;;19.00;99.90;;;;;;5014890;28;20298;-65
2022/06/28 06:51:19;;;;;;;;;;;18.90;99.90;;;;;;5014677;28;20134;-66
2022/06/28 06:53:47;;;;;;;;;;;19.00;99.90;;;;;;5014222;28;20203;-65
2022/06/28 06:56:14;;;;;;;;;;;19.10;99.90;;;;;;5008506;28;20192;-66
2022/06/28 06:58:42;;;;;;;;;;;19.10;99.90;;;;;;5014691;28;20201;-65
2022/06/28 07:01:10;;;;;;;;;;;19.10;99.90;;;;;;5014605;28;20626;-66
2022/06/28 07:03:57;;;;;;;;;;;19.10;99.90;;;;;;5013944;28;20202;-65
2022/06/28 07:06:27;;;;;;;;;;;19.10;99.90;;;;;;5014411;28;20203;-65
2022/06/28 07:08:54;;;;;;;;;;;19.00;99.90;;;;;;5014261;28;20210;-67
2022/06/28 07:11:22;;;;;;;;;;;18.90;99.90;;;;;;5014391;28;20199;-66
2022/06/28 07:13:50;;;;;;;;;;;18.90;99.90;;;;;;5013775;28;20277;-65
2022/06/28 07:16:18;;;;;;;;;;;19.00;99.90;;;;;;5014483;28;20207;-65
2022/06/28 07:18:46;;;;;;;;;;;19.10;99.90;;;;;;5014409;28;20195;-66
2022/06/28 07:21:13;;;;;;;;;;;19.10;99.90;;;;;;5014571;28;20600;-66
2022/06/28 07:23:43;;;;;;;;;;;19.20;99.90;;;;;;5013417;28;20262;-67
2022/06/28 07:26:11;;;;;;;;;;;19.40;99.90;;;;;;5009139;28;20203;-66
2022/06/28 07:28:38;;;;;;;;;;;19.60;99.90;;;;;;5012002;28;20759;-66
2022/06/28 07:31:06;;;;;;;;;;;19.60;99.90;;;;;;5014185;28;20203;-66
2022/06/28 07:33:34;;;;;;;;;;;19.80;99.90;;;;;;5013454;28;20211;-66
2022/06/28 07:36:02;;;;;;;;;;;19.90;99.90;;;;;;5013910;28;20320;-66
2022/06/28 07:38:30;;;;;;;;;;;20.00;99.90;;;;;;5014002;28;20233;-66
2022/06/28 07:40:59;;;;;;;;;;;20.10;99.90;;;;;;5013798;28;20662;-66
2022/06/28 07:43:27;;;;;;;;;;;20.40;99.90;;;;;;5012948;28;20199;-67
2022/06/28 07:45:55;;;;;;;;;;;20.50;99.90;;;;;;5013230;28;20688;-66
2022/06/28 07:48:22;;;;;;;;;;;20.70;99.90;;;;;;5013461;28;20568;-66
2022/06/28 07:53:36;;;;;;;;;;;20.90;99.90;;;;;;5013002;28;20668;-66
2022/06/28 07:56:05;;;;;;;;;;;21.00;99.90;;;;;;5005798;28;20242;-67
2022/06/28 07:58:33;;;;;;;;;;;21.10;99.90;;;;;;5007243;28;20187;-66
2022/06/28 08:01:00;;;;;;;;;;;21.20;99.90;;;;;;5007456;28;20230;-66
2022/06/28 08:03:28;;;;;;;;;;;21.30;99.90;;;;;;5006492;28;20199;-66
2022/06/28 08:05:56;;;;;;;;;;;21.50;99.90;;;;;;5006994;28;20211;-67
2022/06/28 08:08:24;;;;;;;;;;;21.70;99.90;;;;;;5006824;28;20767;-66
2022/06/28 08:10:51;;;;;;;;;;;21.80;99.90;;;;;;5006685;28;20203;-65
2022/06/28 08:13:20;;;;;;;;;;;22.00;99.90;;;;;;5012911;28;20249;-66
2022/06/28 08:15:48;;;;;;;;;;;22.10;99.90;;;;;;5006672;28;20685;-66
2022/06/28 08:18:16;;;;;;;;;;;22.20;99.90;;;;;;5006844;28;20203;-66
2022/06/28 08:20:44;;;;;;;;;;;22.40;99.90;;;;;;5006274;28;20293;-66
2022/06/28 08:23:12;;;;;;;;;;;22.60;99.90;;;;;;5012440;28;20677;-66
2022/06/28 08:25:42;;;;;;;;;;;22.80;99.90;;;;;;5011456;28;20195;-68
2022/06/28 08:28:10;;;;;;;;;;;22.90;99.90;;;;;;5006562;28;20249;-67
2022/06/28 08:30:39;;;;;;;;;;;22.90;99.90;;;;;;5006583;28;20529;-66
2022/06/28 08:33:07;;;;;;;;;;;22.90;99.90;;;;;;5006056;28;20216;-66
2022/06/28 08:35:35;;;;;;;;;;;23.00;99.90;;;;;;5006802;28;20306;-66
2022/06/28 08:38:04;;;;;;;;;;;23.10;99.90;;;;;;5006892;28;20242;-66
2022/06/28 08:40:32;;;;;;;;;;;23.20;99.90;;;;;;4989280;28;20282;-66
2022/06/28 08:43:00;;;;;;;;;;;23.30;99.90;;;;;;5005586;28;20218;-66
2022/06/28 08:45:33;;;;;;;;;;;23.40;99.70;;;;;;5007247;28;20268;-66
2022/06/28 08:48:07;;;;;;;;;;;23.40;99.90;;;;;;5012389;28;20647;-66
2022/06/28 08:50:37;;;;;;;;;;;23.40;99.00;;;;;;5012580;28;20231;-65
2022/06/28 08:53:05;;;;;;;;;;;23.40;99.20;;;;;;5011888;28;20652;-66
2022/06/28 08:55:33;;;;;;;;;;;23.10;99.60;;;;;;5012377;28;20210;-66
2022/06/28 08:58:02;;;;;;;;;;;23.40;99.90;;;;;;5007279;28;20195;-66
2022/06/28 09:00:30;;;;;;;;;;;23.70;99.90;;;;;;5012226;28;20195;-66
2022/06/28 09:02:57;;;;;;;;;;;24.00;99.20;;;;;;5011749;28;20286;-66
2022/06/28 09:05:28;;;;;;;;;;;24.20;99.00;;;;;;5012382;28;20207;-66
2022/06/28 09:07:56;;;;;;;;;;;24.30;99.80;;;;;;5012286;28;20211;-66
2022/06/28 09:10:24;;;;;;;;;;;24.40;99.00;;;;;;5012294;28;20200;-65
2022/06/28 09:13:13;;;;;;;;;;;24.20;97.30;;;;;;5011674;28;20246;-66
2022/06/28 09:15:49;;;;;;;;;;;24.40;98.70;;;;;;5012174;28;20210;-66
2022/06/28 09:18:17;;;;;;;;;;;24.50;97.80;;;;;;5012126;28;20202;-66
2022/06/28 09:20:46;;;;;;;;;;;24.50;96.90;;;;;;5012079;28;20660;-66
2022/06/28 09:23:24;;;;;;;;;;;24.70;97.40;;;;;;5011630;28;20203;-68
2022/06/28 09:25:52;;;;;;;;;;;24.70;96.60;;;;;;5007834;28;20203;-66
2022/06/28 09:28:23;;;;;;;;;;;24.90;96.30;;;;;;5013158;28;20195;-66
2022/06/28 09:30:51;;;;;;;;;;;24.80;95.40;;;;;;5021826;28;20681;-66
2022/06/28 09:33:26;;;;;;;;;;;24.80;94.90;;;;;;5011116;28;20217;-66
2022/06/28 09:35:56;;;;;;;;;;;25.10;96.50;;;;;;5011771;28;20286;-66
2022/06/28 09:38:32;;;;;;;;;;;25.50;94.10;;;;;;5011811;28;20200;-66
2022/06/28 09:41:00;;;;;;;;;;;25.80;94.00;;;;;;5011649;28;20215;-66
2022/06/28 09:43:30;;;;;;;;;;;25.70;94.70;;;;;;5011351;28;20310;-66
2022/06/28 09:46:07;;;;;;;;;;;25.90;94.60;;;;;;5012042;28;20246;-70
2022/06/28 09:48:36;;;;;;;;;;;26.10;94.30;;;;;;5009640;28;20210;-65
2022/06/28 09:51:05;;;;;;;;;;;26.30;93.30;;;;;;5008775;28;20231;-66
2022/06/28 09:53:35;;;;;;;;;;;26.70;92.40;;;;;;5010730;28;20602;-66
2022/06/28 09:56:24;;;;;;;;;;;26.60;92.80;;;;;;5005058;28;20239;-65
2022/06/28 09:58:52;;;;;;;;;;;26.20;92.90;;;;;;5009682;28;20234;-65
2022/06/28 10:01:20;;;;;;;;;;;26.30;92.10;;;;;;5005246;28;20602;-65
2022/06/28 10:03:49;;;;;;;;;;;26.40;93.50;;;;;;5004354;28;20221;-65
2022/06/28 10:06:21;;;;;;;;;;;26.70;92.10;;;;;;5005558;28;20650;-66
2022/06/28 10:08:49;;;;;;;;;;;27.00;90.30;;;;;;5005679;28;20258;-66
2022/06/28 10:11:17;;;;;;;;;;;26.50;88.30;;;;;;5014274;28;20487;-65
2022/06/28 10:16:54;;;;;;;;;;;26.30;89.40;;;;;;5015539;28;20249;-66
2022/06/28 10:19:22;;;;;;;;;;;26.40;90.80;;;;;;5015343;28;20254;-66
2022/06/28 10:22:10;;;;;;;;;;;26.30;90.50;;;;;;5014979;28;20258;-65
2022/06/28 10:24:49;;;;;;;;;;;27.00;89.90;;;;;;5015405;28;20238;-65
2022/06/28 10:27:17;;;;;;;;;;;27.20;87.90;;;;;;5012001;28;20199;-65
2022/06/28 10:30:07;;;;;;;;;;;27.40;90.00;;;;;;5014974;28;20199;-65
2022/06/28 10:32:40;;;;;;;;;;;27.30;87.40;;;;;;5007667;28;20207;-66
2022/06/28 10:35:09;;;;;;;;;;;27.50;90.00;;;;;;5014884;28;20203;-66
2022/06/28 10:37:58;;;;;;;;;;;27.60;88.70;;;;;;5014978;28;20230;-65
2022/06/28 10:40:29;;;;;;;;;;;27.40;88.40;;;;;;5014785;28;20241;-66
2022/06/28 10:42:57;;;;;;;;;;;27.00;87.90;;;;;;5013730;28;20654;-65
2022/06/28 10:45:25;;;;;;;;;;;27.00;88.80;;;;;;5015094;28;20207;-66
2022/06/28 10:48:09;;;;;;;;;;;27.20;87.60;;;;;;5000261;28;20207;-66
2022/06/28 10:50:52;;;;;;;;;;;27.40;85.60;;;;;;4995076;28;20234;-65
2022/06/28 10:53:21;;;;;;;;;;;27.40;87.20;;;;;;4994466;28;20662;-66
2022/06/28 10:56:04;;;;;;;;;;;27.80;85.90;;;;;;4994951;28;20679;-66
2022/06/28 10:58:54;;;;;;;;;;;28.50;84.40;;;;;;4994920;28;20211;-66
2022/06/28 11:01:48;;;;;;;;;;;28.80;84.40;;;;;;4994838;28;20227;-65
2022/06/28 11:04:22;;;;;;;;;;;28.70;83.70;;;;;;4994602;28;20203;-66
2022/06/28 11:06:51;;;;;;;;;;;28.70;87.90;;;;;;4995679;28;20299;-66
2022/06/28 11:09:24;;;;;;;;;;;28.70;85.50;;;;;;4995181;28;20251;-66
2022/06/28 11:12:05;;;;;;;;;;;28.60;87.40;;;;;;4994600;28;20279;-65
2022/06/28 11:14:35;;;;;;;;;;;28.40;82.90;;;;;;4994956;28;20196;-66
2022/06/28 11:17:14;;;;;;;;;;;28.20;83.70;;;;;;4994839;28;20231;-66
2022/06/28 11:19:50;;;;;;;;;;;28.50;82.30;;;;;;4994920;28;20724;-66
2022/06/28 11:22:19;;;;;;;;;;;29.10;84.30;;;;;;4993182;28;20219;-66
2022/06/28 11:24:49;;;;;;;;;;;29.40;83.50;;;;;;4994759;28;20332;-66
2022/06/28 11:27:21;;;;;;;;;;;29.20;84.70;;;;;;4994172;28;20207;-66
2022/06/28 11:29:50;;;;;;;;;;;29.00;82.60;;;;;;4994429;28;20224;-66
2022/06/28 11:32:19;;;;;;;;;;;29.10;82.10;;;;;;4993575;28;20298;-66
2022/06/28 11:34:59;;;;;;;;;;;29.50;80.70;;;;;;4994347;28;20242;-66
2022/06/28 11:37:28;;;;;;;;;;;29.20;79.80;;;;;;4994566;28;20224;-66
2022/06/28 11:39:59;;;;;;;;;;;28.70;81.90;;;;;;4994134;28;20204;-66
2022/06/28 11:42:28;;;;;;;;;;;28.70;78.80;;;;;;4993304;28;20259;-65
2022/06/28 11:44:56;;;;;;;;;;;28.80;80.60;;;;;;4994058;28;20215;-66
2022/06/28 11:47:24;;;;;;;;;;;28.90;80.60;;;;;;4993830;28;20267;-66
2022/06/28 11:49:52;;;;;;;;;;;28.80;77.90;;;;;;4994240;28;20204;-66
2022/06/28 11:52:20;;;;;;;;;;;28.80;80.90;;;;;;4993190;28;20291;-66
2022/06/28 11:54:53;;;;;;;;;;;29.00;78.10;;;;;;4994063;28;20661;-66
2022/06/28 11:57:23;;;;;;;;;;;29.00;80.90;;;;;;4993481;28;20196;-66
2022/06/28 11:59:52;;;;;;;;;;;29.10;81.10;;;;;;4992154;28;20239;-66
2022/06/28 12:02:40;;;;;;;;;;;29.40;78.50;;;;;;4986705;28;20119;-66
2022/06/28 12:05:08;;;;;;;;;;;29.60;77.00;;;;;;4989216;28;20673;-66
2022/06/28 12:07:38;;;;;;;;;;;30.00;77.20;;;;;;4993763;28;20295;-66
2022/06/28 12:10:10;;;;;;;;;;;29.80;77.20;;;;;;4993641;28;20610;-65
2022/06/28 12:12:42;;;;;;;;;;;29.50;76.50;;;;;;4992696;28;20571;-65
2022/06/28 12:15:10;;;;;;;;;;;29.50;78.40;;;;;;4993758;28;20287;-65
2022/06/28 12:17:45;;;;;;;;;;;29.50;77.30;;;;;;4993470;28;20196;-65
2022/06/28 12:20:13;;;;;;;;;;;29.40;76.40;;;;;;4993469;28;20207;-65
2022/06/28 12:22:41;;;;;;;;;;;29.30;76.80;;;;;;4992770;28;20212;-65
2022/06/28 12:25:10;;;;;;;;;;;29.20;76.80;;;;;;4993408;28;20677;-64
2022/06/28 12:27:37;;;;;;;;;;;29.20;76.20;;;;;;4992870;28;20188;-66
2022/06/28 12:30:08;;;;;;;;;;;29.40;75.30;;;;;;4993419;28;20254;-65
2022/06/28 12:32:35;;;;;;;;;;;29.50;77.20;;;;;;4992339;28;20196;-65
2022/06/28 12:35:15;;;;;;;;;;;29.30;75.30;;;;;;4992771;28;20291;-65
2022/06/28 12:37:43;;;;;;;;;;;28.90;73.70;;;;;;4986723;28;20255;-65
2022/06/28 12:40:11;;;;;;;;;;;29.30;74.40;;;;;;4986958;28;20211;-65
2022/06/28 12:42:39;;;;;;;;;;;29.60;72.70;;;;;;4992410;28;20215;-65
2022/06/28 12:45:09;;;;;;;;;;;30.00;74.90;;;;;;4986719;28;20286;-65
2022/06/28 12:47:38;;;;;;;;;;;30.40;74.30;;;;;;4986419;28;20212;-65
2022/06/28 12:50:08;;;;;;;;;;;30.20;73.60;;;;;;4986823;28;20211;-65
2022/06/28 12:52:38;;;;;;;;;;;29.90;72.50;;;;;;4992046;28;20740;-65
2022/06/28 12:55:14;;;;;;;;;;;30.20;72.40;;;;;;5083147;28;20079;-65
2022/06/28 12:57:42;;;;;;;;;;;29.80;70.60;;;;;;5079116;28;20215;-65
2022/06/28 13:00:11;;;;;;;;;;;29.90;72.00;;;;;;5083467;28;20655;-65
2022/06/28 13:02:38;;;;;;;;;;;30.20;71.40;;;;;;5087742;28;20258;-65
2022/06/28 13:05:07;;;;;;;;;;;30.40;71.00;;;;;;5088317;28;20239;-65
2022/06/28 13:07:35;;;;;;;;;;;30.40;70.40;;;;;;5046051;22;20286;-72
2022/06/28 13:10:03;;;;;;;;;;;30.40;70.70;;;;;;4984308;28;20283;-70
2022/06/28 13:12:32;;;;;;;;;;;30.60;72.70;;;;;;4985028;28;20286;-72
2022/06/28 13:15:00;;;;;;;;;;;31.20;71.60;;;;;;4985829;28;20598;-72
2022/06/28 13:17:28;;;;;;;;;;;31.20;70.90;;;;;;4985632;28;20290;-72
2022/06/28 13:19:55;;;;;;;;;;;31.40;70.00;;;;;;4985284;28;20227;-72
2022/06/28 13:22:43;;;;;;;;;;;31.00;70.60;;;;;;4984732;28;20238;-72
2022/06/28 13:25:11;;;;;;;;;;;30.40;72.20;;;;;;4981939;28;20250;-71
2022/06/28 13:27:40;;;;;;;;;;;29.60;71.20;;;;;;4966486;28;20201;-71
2022/06/28 13:30:08;;;;;;;;;;;29.70;70.00;;;;;;4966775;28;20200;-72
2022/06/28 13:32:36;;;;;;;;;;;30.30;71.40;;;;;;4965981;28;20200;-72
2022/06/28 13:35:05;;;;;;;;;;;30.30;70.30;;;;;;4966505;28;20207;-72
2022/06/28 13:37:33;;;;;;;;;;;30.50;73.30;;;;;;4966620;28;20215;-72
2022/06/28 13:40:09;;;;;;;;;;;30.60;67.90;;;;;;4966625;28;20200;-72
2022/06/28 13:42:37;;;;;;;;;;;30.10;69.60;;;;;;4965804;28;20299;-71
2022/06/28 13:45:09;;;;;;;;;;;30.30;68.20;;;;;;4966389;28;20617;-72
2022/06/28 13:47:36;;;;;;;;;;;30.20;67.80;;;;;;4966257;28;20204;-72
2022/06/28 13:50:05;;;;;;;;;;;30.50;68.90;;;;;;4966153;28;20231;-71
2022/06/28 13:52:33;;;;;;;;;;;31.10;68.60;;;;;;4965692;28;20200;-73
2022/06/28 13:55:06;;;;;;;;;;;31.60;67.00;;;;;;4965903;28;20262;-72
2022/06/28 13:57:33;;;;;;;;;;;31.80;67.00;;;;;;4961879;28;20246;-71
2022/06/28 14:00:01;;;;;;;;;;;31.80;66.60;;;;;;4965698;28;20208;-71
2022/06/28 14:02:30;;;;;;;;;;;31.80;66.10;;;;;;4959120;28;20204;-72
2022/06/28 14:04:58;;;;;;;;;;;32.00;66.40;;;;;;4956200;28;20228;-72
2022/06/28 14:07:26;;;;;;;;;;;32.00;67.20;;;;;;4959128;28;20257;-72
2022/06/28 14:09:53;;;;;;;;;;;31.60;66.10;;;;;;4965692;28;20208;-70
2022/06/28 14:12:21;;;;;;;;;;;32.10;66.10;;;;;;4965072;28;20626;-72
2022/06/28 14:14:49;;;;;;;;;;;32.00;66.10;;;;;;4990993;28;20204;-71
2022/06/28 14:17:17;;;;;;;;;;;31.90;65.60;;;;;;4990973;28;20207;-72
2022/06/28 14:19:46;;;;;;;;;;;31.70;65.20;;;;;;4991029;28;20261;-71
2022/06/28 14:22:14;;;;;;;;;;;31.70;65.10;;;;;;4990417;28;20265;-70
2022/06/28 14:24:41;;;;;;;;;;;31.50;67.30;;;;;;4990883;28;20249;-71
2022/06/28 14:27:09;;;;;;;;;;;31.20;67.80;;;;;;4981848;28;20226;-72
2022/06/28 14:29:38;;;;;;;;;;;30.60;69.10;;;;;;4975991;28;20270;-73
2022/06/28 14:32:07;;;;;;;;;;;30.80;66.70;;;;;;4990683;28;20199;-73
2022/06/28 14:34:35;;;;;;;;;;;31.10;67.20;;;;;;4991226;28;20752;-71
2022/06/28 14:37:05;;;;;;;;;;;30.60;67.80;;;;;;4965749;28;20238;-72
2022/06/28 14:39:32;;;;;;;;;;;30.50;68.90;;;;;;4965685;28;20598;-72
2022/06/28 14:42:06;;;;;;;;;;;30.60;67.90;;;;;;4965738;28;20276;-72